TDPD/DOM METAR and TAF weather

Enter ICAO airport designator
Station Type Date Time Source
TDPD METAR 2018/12/10 01:00 UTC NOAA

TDPD 100100Z 11006KT 9999 -SHRA BKN016 24/21 Q1018


Station Type Date Time Source
TDPD Decoded METAR 2018/12/10 01:00 UTC NOAA

Melville Hall Airport, Dominica (TDPD) 15-32N 061-18W 14M
Dec 09, 2018 - 08:00 PM EST / 2018.12.10 0100 UTC
Wind: from the ESE (110 degrees) at 7 MPH (6 KT):0
Visibility: greater than 7 mile(s):0
Sky conditions: mostly cloudy
Weather: light rain showers
Temperature: 75 F (24 C)
Dew Point: 69 F (21 C)
Relative Humidity: 83%
Pressure (altimeter): 30.06 in. Hg (1018 hPa)
ob: TDPD 100100Z 11006KT 9999 -SHRA BKN016 24/21 Q1018
cycle: 1

Station Type Date Time Source
TDPD TAF 2018/12/09 18:43 UTC NOAA

TAF TDPD 091700Z 0918/1018 11012KT 9999 SCT018 PROB30
TEMPO 0918/0922 SHRA BKN015 PROB30
TEMPO 1004/1012 SHRA BKN015


Example: see airport list